sensor_id;sensor_type;location;lat;lon;timestamp;P1;durP1;ratioP1;P2;durP2;ratioP2
21758;SDS011;11041;50.854;20.580;2023-07-09T00:02:12;17.90;;;13.82;;
21758;SDS011;11041;50.854;20.580;2023-07-09T00:04:40;21.40;;;14.60;;
21758;SDS011;11041;50.854;20.580;2023-07-09T00:07:12;19.38;;;14.10;;
21758;SDS011;11041;50.854;20.580;2023-07-09T00:09:57;17.33;;;14.93;;
21758;SDS011;11041;50.854;20.580;2023-07-09T00:12:25;20.77;;;14.27;;
21758;SDS011;11041;50.854;20.580;2023-07-09T00:14:52;16.02;;;13.02;;
21758;SDS011;11041;50.854;20.580;2023-07-09T00:17:27;15.23;;;13.60;;
21758;SDS011;11041;50.854;20.580;2023-07-09T00:19:59;16.08;;;13.68;;
21758;SDS011;11041;50.854;20.580;2023-07-09T00:22:30;16.83;;;13.98;;
21758;SDS011;11041;50.854;20.580;2023-07-09T00:24:57;17.02;;;12.93;;
21758;SDS011;11041;50.854;20.580;2023-07-09T00:27:25;15.32;;;12.07;;
21758;SDS011;11041;50.854;20.580;2023-07-09T00:29:56;15.70;;;13.13;;
21758;SDS011;11041;50.854;20.580;2023-07-09T00:32:23;15.35;;;13.05;;
21758;SDS011;11041;50.854;20.580;2023-07-09T00:34:51;14.95;;;13.38;;
21758;SDS011;11041;50.854;20.580;2023-07-09T00:37:20;15.98;;;12.05;;
21758;SDS011;11041;50.854;20.580;2023-07-09T00:39:51;16.75;;;12.60;;
21758;SDS011;11041;50.854;20.580;2023-07-09T00:42:19;13.73;;;12.13;;
21758;SDS011;11041;50.854;20.580;2023-07-09T00:44:53;14.40;;;11.85;;
21758;SDS011;11041;50.854;20.580;2023-07-09T00:47:28;13.98;;;11.65;;
21758;SDS011;11041;50.854;20.580;2023-07-09T00:50:22;12.85;;;11.43;;
21758;SDS011;11041;50.854;20.580;2023-07-09T00:53:20;13.70;;;11.30;;
21758;SDS011;11041;50.854;20.580;2023-07-09T00:55:59;16.15;;;13.13;;
21758;SDS011;11041;50.854;20.580;2023-07-09T00:58:35;18.20;;;13.27;;
21758;SDS011;11041;50.854;20.580;2023-07-09T01:01:05;16.00;;;12.23;;
21758;SDS011;11041;50.854;20.580;2023-07-09T01:03:42;13.82;;;12.32;;
21758;SDS011;11041;50.854;20.580;2023-07-09T01:06:13;15.55;;;12.77;;
21758;SDS011;11041;50.854;20.580;2023-07-09T01:08:49;13.82;;;12.43;;
21758;SDS011;11041;50.854;20.580;2023-07-09T01:11:20;16.83;;;13.18;;
21758;SDS011;11041;50.854;20.580;2023-07-09T01:13:49;16.15;;;12.65;;
21758;SDS011;11041;50.854;20.580;2023-07-09T01:16:20;22.38;;;14.05;;
21758;SDS011;11041;50.854;20.580;2023-07-09T01:18:54;13.90;;;12.48;;
21758;SDS011;11041;50.854;20.580;2023-07-09T01:21:21;14.45;;;12.45;;
21758;SDS011;11041;50.854;20.580;2023-07-09T01:23:47;15.73;;;12.80;;
21758;SDS011;11041;50.854;20.580;2023-07-09T01:26:17;13.45;;;11.82;;
21758;SDS011;11041;50.854;20.580;2023-07-09T01:28:50;17.08;;;12.82;;
21758;SDS011;11041;50.854;20.580;2023-07-09T01:31:19;14.20;;;12.70;;
21758;SDS011;11041;50.854;20.580;2023-07-09T01:33:46;16.75;;;12.65;;
21758;SDS011;11041;50.854;20.580;2023-07-09T01:36:17;18.42;;;13.20;;
21758;SDS011;11041;50.854;20.580;2023-07-09T01:38:50;14.05;;;12.55;;
21758;SDS011;11041;50.854;20.580;2023-07-09T01:41:19;14.90;;;13.18;;
21758;SDS011;11041;50.854;20.580;2023-07-09T01:43:45;14.95;;;12.65;;
21758;SDS011;11041;50.854;20.580;2023-07-09T01:46:12;17.92;;;14.27;;
21758;SDS011;11041;50.854;20.580;2023-07-09T01:48:40;19.42;;;13.43;;
21758;SDS011;11041;50.854;20.580;2023-07-09T01:51:08;16.05;;;13.13;;
21758;SDS011;11041;50.854;20.580;2023-07-09T01:53:42;14.23;;;12.65;;
21758;SDS011;11041;50.854;20.580;2023-07-09T01:56:10;15.18;;;13.57;;
21758;SDS011;11041;50.854;20.580;2023-07-09T01:58:37;13.43;;;11.98;;
21758;SDS011;11041;50.854;20.580;2023-07-09T02:01:07;13.60;;;11.95;;
21758;SDS011;11041;50.854;20.580;2023-07-09T02:03:35;15.73;;;12.27;;
21758;SDS011;11041;50.854;20.580;2023-07-09T02:06:01;12.80;;;11.52;;
21758;SDS011;11041;50.854;20.580;2023-07-09T02:08:34;14.32;;;11.93;;
21758;SDS011;11041;50.854;20.580;2023-07-09T02:11:02;13.38;;;11.85;;
21758;SDS011;11041;50.854;20.580;2023-07-09T02:13:29;13.55;;;11.93;;
21758;SDS011;11041;50.854;20.580;2023-07-09T02:15:55;14.18;;;12.23;;
21758;SDS011;11041;50.854;20.580;2023-07-09T02:18:22;14.02;;;12.10;;
21758;SDS011;11041;50.854;20.580;2023-07-09T02:20:48;14.43;;;12.15;;
21758;SDS011;11041;50.854;20.580;2023-07-09T02:23:15;12.80;;;11.50;;
21758;SDS011;11041;50.854;20.580;2023-07-09T02:25:42;12.88;;;11.50;;
21758;SDS011;11041;50.854;20.580;2023-07-09T02:28:08;13.48;;;11.82;;
21758;SDS011;11041;50.854;20.580;2023-07-09T02:30:35;11.43;;;10.23;;
21758;SDS011;11041;50.854;20.580;2023-07-09T02:33:01;12.82;;;11.15;;
21758;SDS011;11041;50.854;20.580;2023-07-09T02:35:28;13.55;;;10.65;;
21758;SDS011;11041;50.854;20.580;2023-07-09T02:37:54;13.50;;;11.00;;
21758;SDS011;11041;50.854;20.580;2023-07-09T02:40:21;12.02;;;10.82;;
21758;SDS011;11041;50.854;20.580;2023-07-09T02:42:47;12.45;;;10.70;;
21758;SDS011;11041;50.854;20.580;2023-07-09T02:45:14;11.95;;;10.75;;
21758;SDS011;11041;50.854;20.580;2023-07-09T02:47:40;14.98;;;10.93;;
21758;SDS011;11041;50.854;20.580;2023-07-09T02:50:07;12.20;;;10.60;;
21758;SDS011;11041;50.854;20.580;2023-07-09T02:52:34;12.35;;;10.43;;
21758;SDS011;11041;50.854;20.580;2023-07-09T02:55:00;12.68;;;11.43;;
21758;SDS011;11041;50.854;20.580;2023-07-09T02:57:27;11.20;;;10.00;;
21758;SDS011;11041;50.854;20.580;2023-07-09T02:59:53;12.15;;;10.82;;
21758;SDS011;11041;50.854;20.580;2023-07-09T03:02:20;13.68;;;10.82;;
21758;SDS011;11041;50.854;20.580;2023-07-09T03:04:47;15.55;;;10.93;;
21758;SDS011;11041;50.854;20.580;2023-07-09T03:07:13;13.77;;;10.93;;
21758;SDS011;11041;50.854;20.580;2023-07-09T03:09:40;12.25;;;9.82;;
21758;SDS011;11041;50.854;20.580;2023-07-09T03:12:06;13.98;;;10.80;;
21758;SDS011;11041;50.854;20.580;2023-07-09T03:14:35;12.25;;;10.23;;
21758;SDS011;11041;50.854;20.580;2023-07-09T03:17:02;13.00;;;9.80;;
21758;SDS011;11041;50.854;20.580;2023-07-09T03:19:29;11.25;;;10.02;;
21758;SDS011;11041;50.854;20.580;2023-07-09T03:21:55;11.32;;;10.23;;
21758;SDS011;11041;50.854;20.580;2023-07-09T03:24:22;12.85;;;11.05;;
21758;SDS011;11041;50.854;20.580;2023-07-09T03:26:48;12.07;;;10.77;;
21758;SDS011;11041;50.854;20.580;2023-07-09T03:29:15;11.10;;;9.93;;
21758;SDS011;11041;50.854;20.580;2023-07-09T03:31:41;10.65;;;9.52;;
21758;SDS011;11041;50.854;20.580;2023-07-09T03:34:09;11.60;;;10.43;;
21758;SDS011;11041;50.854;20.580;2023-07-09T03:36:36;11.85;;;10.65;;
21758;SDS011;11041;50.854;20.580;2023-07-09T03:39:03;12.82;;;11.18;;
21758;SDS011;11041;50.854;20.580;2023-07-09T03:41:31;14.10;;;10.88;;
21758;SDS011;11041;50.854;20.580;2023-07-09T03:43:57;16.05;;;11.50;;
21758;SDS011;11041;50.854;20.580;2023-07-09T03:46:24;12.98;;;10.75;;
21758;SDS011;11041;50.854;20.580;2023-07-09T03:48:51;16.17;;;11.57;;
21758;SDS011;11041;50.854;20.580;2023-07-09T03:51:17;13.65;;;11.07;;
21758;SDS011;11041;50.854;20.580;2023-07-09T03:53:44;13.15;;;11.70;;
21758;SDS011;11041;50.854;20.580;2023-07-09T03:56:10;11.80;;;10.45;;
21758;SDS011;11041;50.854;20.580;2023-07-09T03:58:37;14.80;;;11.82;;
21758;SDS011;11041;50.854;20.580;2023-07-09T04:01:04;12.43;;;11.05;;
21758;SDS011;11041;50.854;20.580;2023-07-09T04:03:31;12.90;;;11.35;;
21758;SDS011;11041;50.854;20.580;2023-07-09T04:05:57;12.63;;;11.27;;
21758;SDS011;11041;50.854;20.580;2023-07-09T04:08:24;14.00;;;11.07;;
21758;SDS011;11041;50.854;20.580;2023-07-09T04:10:52;11.85;;;10.48;;
21758;SDS011;11041;50.854;20.580;2023-07-09T04:13:29;12.95;;;10.88;;
21758;SDS011;11041;50.854;20.580;2023-07-09T04:15:55;12.13;;;10.90;;
21758;SDS011;11041;50.854;20.580;2023-07-09T04:18:23;14.70;;;12.98;;
21758;SDS011;11041;50.854;20.580;2023-07-09T04:20:50;17.65;;;15.30;;
21758;SDS011;11041;50.854;20.580;2023-07-09T04:23:18;16.77;;;12.35;;
21758;SDS011;11041;50.854;20.580;2023-07-09T04:25:45;13.32;;;11.30;;
21758;SDS011;11041;50.854;20.580;2023-07-09T04:28:12;13.07;;;11.18;;
21758;SDS011;11041;50.854;20.580;2023-07-09T04:30:45;12.18;;;10.90;;
21758;SDS011;11041;50.854;20.580;2023-07-09T04:33:17;12.70;;;11.40;;
21758;SDS011;11041;50.854;20.580;2023-07-09T04:35:46;15.25;;;12.90;;
21758;SDS011;11041;50.854;20.580;2023-07-09T04:38:14;15.57;;;13.98;;
21758;SDS011;11041;50.854;20.580;2023-07-09T04:40:41;16.67;;;12.98;;
21758;SDS011;11041;50.854;20.580;2023-07-09T04:43:08;14.43;;;12.57;;
21758;SDS011;11041;50.854;20.580;2023-07-09T04:45:34;14.57;;;13.18;;
21758;SDS011;11041;50.854;20.580;2023-07-09T04:48:01;16.90;;;12.73;;
21758;SDS011;11041;50.854;20.580;2023-07-09T04:50:28;14.43;;;13.00;;
21758;SDS011;11041;50.854;20.580;2023-07-09T04:52:55;15.00;;;12.65;;
21758;SDS011;11041;50.854;20.580;2023-07-09T04:55:21;14.73;;;13.15;;
21758;SDS011;11041;50.854;20.580;2023-07-09T04:57:48;13.65;;;12.20;;
21758;SDS011;11041;50.854;20.580;2023-07-09T05:00:16;13.52;;;12.13;;
21758;SDS011;11041;50.854;20.580;2023-07-09T05:02:43;14.93;;;12.10;;
21758;SDS011;11041;50.854;20.580;2023-07-09T05:05:09;15.85;;;11.65;;
21758;SDS011;11041;50.854;20.580;2023-07-09T05:07:38;14.60;;;12.10;;
21758;SDS011;11041;50.854;20.580;2023-07-09T05:10:05;15.98;;;12.75;;
21758;SDS011;11041;50.854;20.580;2023-07-09T05:12:33;16.23;;;12.90;;
21758;SDS011;11041;50.854;20.580;2023-07-09T05:14:59;14.63;;;12.27;;
21758;SDS011;11041;50.854;20.580;2023-07-09T05:17:26;13.90;;;12.40;;
21758;SDS011;11041;50.854;20.580;2023-07-09T05:19:52;13.57;;;12.07;;
21758;SDS011;11041;50.854;20.580;2023-07-09T05:22:19;14.88;;;12.60;;
21758;SDS011;11041;50.854;20.580;2023-07-09T05:24:46;14.85;;;12.52;;
21758;SDS011;11041;50.854;20.580;2023-07-09T05:27:12;14.57;;;12.98;;
21758;SDS011;11041;50.854;20.580;2023-07-09T05:29:39;14.50;;;12.45;;
21758;SDS011;11041;50.854;20.580;2023-07-09T05:32:05;15.13;;;11.95;;
21758;SDS011;11041;50.854;20.580;2023-07-09T05:34:32;16.17;;;12.38;;
21758;SDS011;11041;50.854;20.580;2023-07-09T05:36:59;13.88;;;12.18;;
21758;SDS011;11041;50.854;20.580;2023-07-09T05:39:25;14.88;;;13.30;;
21758;SDS011;11041;50.854;20.580;2023-07-09T05:41:52;14.73;;;12.68;;
21758;SDS011;11041;50.854;20.580;2023-07-09T05:44:18;14.50;;;13.00;;
21758;SDS011;11041;50.854;20.580;2023-07-09T05:46:45;15.05;;;12.27;;
21758;SDS011;11041;50.854;20.580;2023-07-09T05:49:11;16.05;;;12.95;;
21758;SDS011;11041;50.854;20.580;2023-07-09T05:51:38;17.75;;;13.10;;
21758;SDS011;11041;50.854;20.580;2023-07-09T05:54:04;16.60;;;12.98;;
21758;SDS011;11041;50.854;20.580;2023-07-09T05:56:31;14.00;;;12.48;;
21758;SDS011;11041;50.854;20.580;2023-07-09T05:58:58;16.27;;;12.35;;
21758;SDS011;11041;50.854;20.580;2023-07-09T06:01:26;14.60;;;12.98;;
21758;SDS011;11041;50.854;20.580;2023-07-09T06:03:52;15.18;;;11.40;;
21758;SDS011;11041;50.854;20.580;2023-07-09T06:06:20;14.13;;;12.13;;
21758;SDS011;11041;50.854;20.580;2023-07-09T06:08:47;14.98;;;11.88;;
21758;SDS011;11041;50.854;20.580;2023-07-09T06:11:14;16.50;;;12.57;;
21758;SDS011;11041;50.854;20.580;2023-07-09T06:13:40;12.73;;;11.43;;
21758;SDS011;11041;50.854;20.580;2023-07-09T06:16:07;13.50;;;11.60;;
21758;SDS011;11041;50.854;20.580;2023-07-09T06:18:33;17.40;;;11.65;;
21758;SDS011;11041;50.854;20.580;2023-07-09T06:21:01;12.45;;;11.25;;
21758;SDS011;11041;50.854;20.580;2023-07-09T06:23:29;12.52;;;11.02;;
21758;SDS011;11041;50.854;20.580;2023-07-09T06:25:56;12.52;;;10.77;;
21758;SDS011;11041;50.854;20.580;2023-07-09T06:28:24;12.73;;;10.18;;
21758;SDS011;11041;50.854;20.580;2023-07-09T06:30:55;13.30;;;9.90;;
21758;SDS011;11041;50.854;20.580;2023-07-09T06:33:22;10.85;;;9.75;;
21758;SDS011;11041;50.854;20.580;2023-07-09T06:35:55;12.93;;;9.95;;
21758;SDS011;11041;50.854;20.580;2023-07-09T06:38:26;10.10;;;9.10;;
21758;SDS011;11041;50.854;20.580;2023-07-09T06:40:56;14.15;;;10.25;;
21758;SDS011;11041;50.854;20.580;2023-07-09T06:43:23;12.05;;;10.15;;
21758;SDS011;11041;50.854;20.580;2023-07-09T06:45:54;10.45;;;9.32;;
21758;SDS011;11041;50.854;20.580;2023-07-09T06:48:24;13.02;;;9.63;;
21758;SDS011;11041;50.854;20.580;2023-07-09T06:50:56;12.25;;;9.18;;
21758;SDS011;11041;50.854;20.580;2023-07-09T06:53:24;10.25;;;8.70;;
21758;SDS011;11041;50.854;20.580;2023-07-09T06:55:53;12.68;;;8.98;;
21758;SDS011;11041;50.854;20.580;2023-07-09T06:58:21;13.35;;;8.43;;
21758;SDS011;11041;50.854;20.580;2023-07-09T07:00:51;10.35;;;8.77;;
21758;SDS011;11041;50.854;20.580;2023-07-09T07:03:18;10.40;;;8.98;;
21758;SDS011;11041;50.854;20.580;2023-07-09T07:05:45;12.85;;;7.97;;
21758;SDS011;11041;50.854;20.580;2023-07-09T07:08:19;9.77;;;7.40;;
21758;SDS011;11041;50.854;20.580;2023-07-09T07:10:55;9.80;;;7.10;;
21758;SDS011;11041;50.854;20.580;2023-07-09T07:13:32;10.48;;;7.32;;
21758;SDS011;11041;50.854;20.580;2023-07-09T07:16:03;8.43;;;7.35;;
21758;SDS011;11041;50.854;20.580;2023-07-09T07:18:33;9.07;;;7.30;;
21758;SDS011;11041;50.854;20.580;2023-07-09T07:21:00;8.45;;;6.90;;
21758;SDS011;11041;50.854;20.580;2023-07-09T07:23:27;7.47;;;6.75;;
21758;SDS011;11041;50.854;20.580;2023-07-09T07:25:55;9.60;;;6.50;;
21758;SDS011;11041;50.854;20.580;2023-07-09T07:28:21;7.75;;;6.68;;
21758;SDS011;11041;50.854;20.580;2023-07-09T07:31:01;6.88;;;6.18;;
21758;SDS011;11041;50.854;20.580;2023-07-09T07:33:34;6.63;;;5.90;;
21758;SDS011;11041;50.854;20.580;2023-07-09T07:36:06;10.60;;;5.78;;
21758;SDS011;11041;50.854;20.580;2023-07-09T07:38:34;5.72;;;5.18;;
21758;SDS011;11041;50.854;20.580;2023-07-09T07:41:01;7.38;;;6.18;;
21758;SDS011;11041;50.854;20.580;2023-07-09T07:43:28;6.57;;;5.60;;
21758;SDS011;11041;50.854;20.580;2023-07-09T07:45:55;6.35;;;5.75;;
21758;SDS011;11041;50.854;20.580;2023-07-09T07:48:21;7.38;;;5.85;;
21758;SDS011;11041;50.854;20.580;2023-07-09T07:50:48;7.72;;;5.68;;
21758;SDS011;11041;50.854;20.580;2023-07-09T07:53:14;7.53;;;5.43;;
21758;SDS011;11041;50.854;20.580;2023-07-09T07:55:42;6.15;;;5.47;;
21758;SDS011;11041;50.854;20.580;2023-07-09T07:58:12;6.30;;;5.70;;
21758;SDS011;11041;50.854;20.580;2023-07-09T08:00:39;6.65;;;5.10;;
21758;SDS011;11041;50.854;20.580;2023-07-09T08:03:06;6.72;;;5.00;;
21758;SDS011;11041;50.854;20.580;2023-07-09T08:05:33;10.13;;;5.47;;
21758;SDS011;11041;50.854;20.580;2023-07-09T08:07:59;5.90;;;5.28;;
21758;SDS011;11041;50.854;20.580;2023-07-09T08:10:26;6.05;;;4.40;;
21758;SDS011;11041;50.854;20.580;2023-07-09T08:12:52;5.20;;;3.92;;
21758;SDS011;11041;50.854;20.580;2023-07-09T08:15:25;6.20;;;4.35;;
21758;SDS011;11041;50.854;20.580;2023-07-09T08:17:53;5.35;;;3.10;;
21758;SDS011;11041;50.854;20.580;2023-07-09T08:20:20;7.88;;;4.47;;
21758;SDS011;11041;50.854;20.580;2023-07-09T08:22:46;5.15;;;3.90;;
21758;SDS011;11041;50.854;20.580;2023-07-09T08:25:13;6.55;;;4.28;;
21758;SDS011;11041;50.854;20.580;2023-07-09T08:27:39;4.78;;;3.67;;
21758;SDS011;11041;50.854;20.580;2023-07-09T08:30:06;5.60;;;3.80;;
21758;SDS011;11041;50.854;20.580;2023-07-09T08:32:34;4.10;;;3.70;;
21758;SDS011;11041;50.854;20.580;2023-07-09T08:35:01;7.22;;;3.70;;
21758;SDS011;11041;50.854;20.580;2023-07-09T08:37:28;4.07;;;3.67;;
21758;SDS011;11041;50.854;20.580;2023-07-09T08:39:55;4.68;;;3.97;;
21758;SDS011;11041;50.854;20.580;2023-07-09T08:42:39;6.25;;;3.70;;
21758;SDS011;11041;50.854;20.580;2023-07-09T08:48:00;4.45;;;3.60;;
21758;SDS011;11041;50.854;20.580;2023-07-09T08:51:12;7.63;;;3.88;;
21758;SDS011;11041;50.854;20.580;2023-07-09T08:56:25;3.97;;;3.60;;
21758;SDS011;11041;50.854;20.580;2023-07-09T08:58:58;8.48;;;3.67;;
21758;SDS011;11041;50.854;20.580;2023-07-09T09:01:34;4.32;;;3.67;;
21758;SDS011;11041;50.854;20.580;2023-07-09T09:04:22;5.55;;;4.05;;
21758;SDS011;11041;50.854;20.580;2023-07-09T09:07:02;5.80;;;4.20;;
21758;SDS011;11041;50.854;20.580;2023-07-09T09:10:01;4.78;;;4.03;;
21758;SDS011;11041;50.854;20.580;2023-07-09T09:15:16;6.25;;;4.30;;
21758;SDS011;11041;50.854;20.580;2023-07-09T09:17:46;4.28;;;3.88;;
21758;SDS011;11041;50.854;20.580;2023-07-09T09:20:21;7.43;;;4.05;;
21758;SDS011;11041;50.854;20.580;2023-07-09T09:25:32;5.97;;;4.30;;
21758;SDS011;11041;50.854;20.580;2023-07-09T09:28:07;5.20;;;4.70;;
21758;SDS011;11041;50.854;20.580;2023-07-09T09:30:34;7.40;;;4.28;;
21758;SDS011;11041;50.854;20.580;2023-07-09T09:33:01;5.55;;;4.03;;
21758;SDS011;11041;50.854;20.580;2023-07-09T09:35:36;5.43;;;3.85;;
21758;SDS011;11041;50.854;20.580;2023-07-09T09:38:11;5.07;;;3.95;;
21758;SDS011;11041;50.854;20.580;2023-07-09T09:40:42;4.43;;;3.63;;
21758;SDS011;11041;50.854;20.580;2023-07-09T09:43:12;5.72;;;4.45;;
21758;SDS011;11041;50.854;20.580;2023-07-09T09:45:43;8.38;;;4.03;;
21758;SDS011;11041;50.854;20.580;2023-07-09T09:48:17;4.07;;;3.67;;
21758;SDS011;11041;50.854;20.580;2023-07-09T09:50:52;4.72;;;4.00;;
21758;SDS011;11041;50.854;20.580;2023-07-09T09:53:23;5.47;;;4.20;;
21758;SDS011;11041;50.854;20.580;2023-07-09T09:55:52;4.43;;;4.00;;
21758;SDS011;11041;50.854;20.580;2023-07-09T09:58:26;4.65;;;3.95;;
21758;SDS011;11041;50.854;20.580;2023-07-09T10:00:55;4.80;;;4.40;;
21758;SDS011;11041;50.854;20.580;2023-07-09T10:03:32;6.20;;;4.30;;
21758;SDS011;11041;50.854;20.580;2023-07-09T10:06:06;3.97;;;3.65;;
21758;SDS011;11041;50.854;20.580;2023-07-09T10:11:30;6.85;;;4.38;;
21758;SDS011;11041;50.854;20.580;2023-07-09T10:14:20;4.78;;;3.75;;
21758;SDS011;11041;50.854;20.580;2023-07-09T10:17:18;4.97;;;4.57;;
21758;SDS011;11041;50.854;20.580;2023-07-09T10:21:04;4.50;;;4.10;;
21758;SDS011;11041;50.854;20.580;2023-07-09T10:23:22;4.57;;;4.10;;
21758;SDS011;11041;50.854;20.580;2023-07-09T10:26:24;5.03;;;4.07;;
21758;SDS011;11041;50.854;20.580;2023-07-09T10:35:37;9.07;;;4.72;;
21758;SDS011;11041;50.854;20.580;2023-07-09T10:38:36;5.05;;;4.43;;
21758;SDS011;11041;50.854;20.580;2023-07-09T10:41:23;6.45;;;4.20;;
21758;SDS011;11041;50.854;20.580;2023-07-09T10:46:48;5.32;;;4.15;;
21758;SDS011;11041;50.854;20.580;2023-07-09T10:49:20;6.53;;;4.22;;
21758;SDS011;11041;50.854;20.580;2023-07-09T10:51:59;4.75;;;3.85;;
21758;SDS011;11041;50.854;20.580;2023-07-09T10:54:40;4.35;;;3.95;;
21758;SDS011;11041;50.854;20.580;2023-07-09T11:00:36;4.93;;;4.22;;
21758;SDS011;11041;50.854;20.580;2023-07-09T11:03:18;4.82;;;3.75;;
21758;SDS011;11041;50.854;20.580;2023-07-09T11:06:01;6.20;;;4.00;;
21758;SDS011;11041;50.854;20.580;2023-07-09T11:08:34;5.60;;;4.18;;
21758;SDS011;11041;50.854;20.580;2023-07-09T11:11:10;4.40;;;4.07;;
21758;SDS011;11041;50.854;20.580;2023-07-09T11:14:10;6.35;;;4.45;;
21758;SDS011;11041;50.854;20.580;2023-07-09T11:16:47;5.68;;;4.25;;
21758;SDS011;11041;50.854;20.580;2023-07-09T11:19:17;5.93;;;4.22;;
21758;SDS011;11041;50.854;20.580;2023-07-09T11:22:12;4.43;;;4.03;;
21758;SDS011;11041;50.854;20.580;2023-07-09T11:25:12;4.70;;;4.30;;
21758;SDS011;11041;50.854;20.580;2023-07-09T11:27:53;6.78;;;4.35;;
21758;SDS011;11041;50.854;20.580;2023-07-09T11:30:30;5.45;;;4.40;;
21758;SDS011;11041;50.854;20.580;2023-07-09T11:33:04;5.13;;;4.00;;
21758;SDS011;11041;50.854;20.580;2023-07-09T11:35:46;4.55;;;4.10;;
21758;SDS011;11041;50.854;20.580;2023-07-09T11:38:21;4.65;;;4.25;;
21758;SDS011;11041;50.854;20.580;2023-07-09T11:40:51;4.40;;;4.00;;
21758;SDS011;11041;50.854;20.580;2023-07-09T11:44:00;4.85;;;4.00;;
21758;SDS011;11041;50.854;20.580;2023-07-09T11:46:17;5.93;;;4.40;;
21758;SDS011;11041;50.854;20.580;2023-07-09T11:48:52;4.68;;;4.22;;
21758;SDS011;11041;50.854;20.580;2023-07-09T11:51:28;4.72;;;4.32;;
21758;SDS011;11041;50.854;20.580;2023-07-09T11:54:10;5.45;;;4.38;;
21758;SDS011;11041;50.854;20.580;2023-07-09T11:56:41;6.32;;;3.75;;
21758;SDS011;11041;50.854;20.580;2023-07-09T11:59:08;4.80;;;3.80;;
21758;SDS011;11041;50.854;20.580;2023-07-09T12:01:44;8.60;;;3.85;;
21758;SDS011;11041;50.854;20.580;2023-07-09T12:04:14;4.25;;;3.85;;
21758;SDS011;11041;50.854;20.580;2023-07-09T12:06:44;7.65;;;3.75;;
21758;SDS011;11041;50.854;20.580;2023-07-09T12:09:17;6.22;;;3.75;;
21758;SDS011;11041;50.854;20.580;2023-07-09T12:11:48;4.28;;;3.88;;
21758;SDS011;11041;50.854;20.580;2023-07-09T12:14:20;4.22;;;3.90;;
21758;SDS011;11041;50.854;20.580;2023-07-09T12:16:50;5.72;;;4.03;;
21758;SDS011;11041;50.854;20.580;2023-07-09T12:19:19;4.53;;;4.13;;
21758;SDS011;11041;50.854;20.580;2023-07-09T12:21:51;5.35;;;4.07;;
21758;SDS011;11041;50.854;20.580;2023-07-09T12:24:27;4.25;;;3.95;;
21758;SDS011;11041;50.854;20.580;2023-07-09T12:27:02;4.57;;;4.13;;
21758;SDS011;11041;50.854;20.580;2023-07-09T12:29:44;6.15;;;3.30;;
21758;SDS011;11041;50.854;20.580;2023-07-09T12:32:15;4.07;;;3.50;;
21758;SDS011;11041;50.854;20.580;2023-07-09T12:34:49;4.15;;;3.67;;
21758;SDS011;11041;50.854;20.580;2023-07-09T12:37:18;3.63;;;3.33;;
21758;SDS011;11041;50.854;20.580;2023-07-09T12:39:49;11.52;;;4.13;;
21758;SDS011;11041;50.854;20.580;2023-07-09T12:42:23;6.10;;;4.20;;
21758;SDS011;11041;50.854;20.580;2023-07-09T12:45:01;4.32;;;3.58;;
21758;SDS011;11041;50.854;20.580;2023-07-09T12:47:28;5.63;;;3.58;;
21758;SDS011;11041;50.854;20.580;2023-07-09T12:50:30;6.18;;;4.47;;
21758;SDS011;11041;50.854;20.580;2023-07-09T12:53:03;4.03;;;3.72;;
21758;SDS011;11041;50.854;20.580;2023-07-09T12:55:42;7.15;;;3.30;;
21758;SDS011;11041;50.854;20.580;2023-07-09T12:58:23;6.72;;;3.90;;
21758;SDS011;11041;50.854;20.580;2023-07-09T13:01:05;11.38;;;3.95;;
21758;SDS011;11041;50.854;20.580;2023-07-09T13:03:38;5.15;;;3.80;;
21758;SDS011;11041;50.854;20.580;2023-07-09T13:06:06;5.28;;;3.63;;
21758;SDS011;11041;50.854;20.580;2023-07-09T13:09:00;8.32;;;4.13;;
21758;SDS011;11041;50.854;20.580;2023-07-09T13:11:36;4.90;;;3.88;;
21758;SDS011;11041;50.854;20.580;2023-07-09T13:14:11;3.72;;;3.35;;
21758;SDS011;11041;50.854;20.580;2023-07-09T13:16:48;5.88;;;3.60;;
21758;SDS011;11041;50.854;20.580;2023-07-09T13:19:16;4.93;;;3.60;;
21758;SDS011;11041;50.854;20.580;2023-07-09T13:21:44;4.80;;;3.33;;
21758;SDS011;11041;50.854;20.580;2023-07-09T13:24:17;5.00;;;3.85;;
21758;SDS011;11041;50.854;20.580;2023-07-09T13:26:51;4.22;;;3.80;;
21758;SDS011;11041;50.854;20.580;2023-07-09T13:29:18;4.00;;;3.58;;
21758;SDS011;11041;50.854;20.580;2023-07-09T13:31:46;6.15;;;3.83;;
21758;SDS011;11041;50.854;20.580;2023-07-09T13:34:18;4.20;;;3.80;;
21758;SDS011;11041;50.854;20.580;2023-07-09T13:36:50;3.95;;;3.55;;
21758;SDS011;11041;50.854;20.580;2023-07-09T13:39:19;4.25;;;3.85;;
21758;SDS011;11041;50.854;20.580;2023-07-09T13:41:47;3.58;;;3.15;;
21758;SDS011;11041;50.854;20.580;2023-07-09T13:44:17;3.67;;;3.28;;
21758;SDS011;11041;50.854;20.580;2023-07-09T13:46:53;3.05;;;2.85;;
21758;SDS011;11041;50.854;20.580;2023-07-09T13:49:22;3.40;;;3.10;;
21758;SDS011;11041;50.854;20.580;2023-07-09T13:51:54;3.55;;;3.20;;
21758;SDS011;11041;50.854;20.580;2023-07-09T13:54:27;3.20;;;2.90;;
21758;SDS011;11041;50.854;20.580;2023-07-09T13:57:06;4.90;;;4.40;;
21758;SDS011;11041;50.854;20.580;2023-07-09T13:59:41;4.38;;;3.97;;
21758;SDS011;11041;50.854;20.580;2023-07-09T14:02:22;5.10;;;4.70;;
21758;SDS011;11041;50.854;20.580;2023-07-09T14:04:57;8.70;;;3.13;;
21758;SDS011;11041;50.854;20.580;2023-07-09T14:07:30;3.60;;;3.30;;
21758;SDS011;11041;50.854;20.580;2023-07-09T14:10:02;4.25;;;3.85;;
21758;SDS011;11041;50.854;20.580;2023-07-09T14:12:34;5.40;;;3.70;;
21758;SDS011;11041;50.854;20.580;2023-07-09T14:15:09;3.88;;;3.22;;
21758;SDS011;11041;50.854;20.580;2023-07-09T14:17:44;3.10;;;2.88;;
21758;SDS011;11041;50.854;20.580;2023-07-09T14:20:14;4.10;;;3.25;;
21758;SDS011;11041;50.854;20.580;2023-07-09T14:22:42;4.63;;;3.10;;
21758;SDS011;11041;50.854;20.580;2023-07-09T14:25:24;3.60;;;3.30;;
21758;SDS011;11041;50.854;20.580;2023-07-09T14:27:53;3.38;;;3.08;;
21758;SDS011;11041;50.854;20.580;2023-07-09T14:30:21;4.22;;;3.38;;
21758;SDS011;11041;50.854;20.580;2023-07-09T14:32:50;3.60;;;3.22;;
21758;SDS011;11041;50.854;20.580;2023-07-09T14:35:19;5.70;;;3.53;;
21758;SDS011;11041;50.854;20.580;2023-07-09T14:37:50;4.55;;;3.25;;
21758;SDS011;11041;50.854;20.580;2023-07-09T14:40:20;4.13;;;3.40;;
21758;SDS011;11041;50.854;20.580;2023-07-09T14:42:48;4.55;;;3.30;;
21758;SDS011;11041;50.854;20.580;2023-07-09T14:45:25;4.20;;;3.75;;
21758;SDS011;11041;50.854;20.580;2023-07-09T14:47:55;4.18;;;3.35;;
21758;SDS011;11041;50.854;20.580;2023-07-09T14:50:22;5.82;;;3.17;;
21758;SDS011;11041;50.854;20.580;2023-07-09T14:52:51;5.70;;;3.25;;
21758;SDS011;11041;50.854;20.580;2023-07-09T14:55:19;4.93;;;3.08;;
21758;SDS011;11041;50.854;20.580;2023-07-09T14:57:49;3.53;;;3.25;;
21758;SDS011;11041;50.854;20.580;2023-07-09T15:00:17;6.93;;;4.38;;
21758;SDS011;11041;50.854;20.580;2023-07-09T15:02:48;10.40;;;6.63;;
21758;SDS011;11041;50.854;20.580;2023-07-09T15:05:21;13.07;;;7.10;;
21758;SDS011;11041;50.854;20.580;2023-07-09T15:07:50;4.82;;;4.35;;
21758;SDS011;11041;50.854;20.580;2023-07-09T15:10:20;5.05;;;3.58;;
21758;SDS011;11041;50.854;20.580;2023-07-09T15:12:55;6.72;;;4.97;;